Time;durP1;ratioP1;P1;durP2;ratioP2;P2;SDS_P1;SDS_P2;PMS_P1;PMS_P2;Temp;Humidity;BMP_temperature;BMP_pressure;BME280_temperature;BME280_humidity;BME280_pressure;Samples;Min_cycle;Max_cycle;Signal;HPM_P1;HPM_P2
2023/12/24 00:01:11;;;;;;;5.90;0.30;;;;;;;1.37;97.80;99036.16;111607;1260;22242;-73
2023/12/24 00:04:05;;;;;;;4.50;0.40;;;;;;;1.36;97.75;99040.37;111587;1266;22167;-73
2023/12/24 00:06:54;;;;;;;;;;;;;;;1.34;97.72;99040.75;111625;1266;22334;-73
2023/12/24 00:09:44;;;;;;;3.00;0.30;;;;;;;1.33;97.71;99043.39;111558;1264;22331;-72
2023/12/24 00:12:37;;;;;;;2.20;0.20;;;;;;;1.32;97.85;99050.39;111586;1260;22297;-73
2023/12/24 00:15:28;;;;;;;3.40;0.20;;;;;;;1.30;97.86;99054.87;111358;1266;22988;-72
2023/12/24 00:18:19;;;;;;;2.70;0.30;;;;;;;1.27;97.92;99062.92;111248;1265;22910;-71
2023/12/24 00:21:12;;;;;;;4.30;0.40;;;;;;;1.25;98.01;99061.89;111313;1268;22149;-73
2023/12/24 00:24:03;;;;;;;4.30;0.30;;;;;;;1.23;98.12;99070.43;111397;1268;22151;-73
2023/12/24 00:26:52;;;;;;;;;;;;;;;1.19;98.22;99077.02;111420;1268;22370;-72
2023/12/24 00:29:43;;;;;;;2.30;0.30;;;;;;;1.15;98.44;99077.60;111411;1265;22206;-72
2023/12/24 00:32:34;;;;;;;3.00;0.20;;;;;;;1.13;98.46;99081.61;111410;1268;22986;-72
2023/12/24 00:35:23;;;;;;;;;;;;;;;1.10;98.62;99086.58;111426;1257;22338;-71
2023/12/24 00:38:14;;;;;;;3.70;0.40;;;;;;;1.06;98.72;99092.61;111291;1268;22866;-72
2023/12/24 00:41:04;;;;;;;2.60;0.30;;;;;;;1.04;98.70;99092.20;111422;1268;22231;-72
2023/12/24 00:43:56;;;;;;;3.20;0.40;;;;;;;1.03;98.78;99096.22;111271;1268;22150;-72
2023/12/24 00:46:47;;;;;;;8.10;0.30;;;;;;;1.01;98.85;99098.11;111257;1269;22135;-71
2023/12/24 00:49:37;;;;;;;1.70;0.30;;;;;;;0.97;98.95;99100.89;111270;1269;22236;-71
2023/12/24 00:52:26;;;;;;;;;;;;;;;0.94;98.95;99106.11;111415;1268;22389;-71
2023/12/24 00:55:18;;;;;;;0.90;0.20;;;;;;;0.91;99.06;99106.45;111406;1263;22220;-73
2023/12/24 00:58:07;;;;;;;;;;;;;;;0.89;99.13;99108.77;111398;1262;22392;-72
2023/12/24 01:00:58;;;;;;;0.90;0.20;;;;;;;0.87;99.18;99112.29;111386;1261;22119;-72
2023/12/24 01:03:49;;;;;;;2.90;0.40;;;;;;;0.85;99.18;99110.16;111391;1266;22074;-73
2023/12/24 01:06:40;;;;;;;2.90;0.60;;;;;;;0.84;99.27;99106.27;111271;1267;22233;-72
2023/12/24 01:09:31;;;;;;;4.00;0.20;;;;;;;0.83;99.22;99112.52;111422;1263;22159;-72
2023/12/24 01:12:21;;;;;;;1.30;0.20;;;;;;;0.82;99.24;99119.44;111303;1266;22206;-75
2023/12/24 01:15:13;;;;;;;2.40;0.40;;;;;;;0.80;99.32;99120.45;111239;1269;22162;-72
2023/12/24 01:18:04;;;;;;;3.10;0.40;;;;;;;0.78;99.33;99127.19;111294;1266;22095;-72
2023/12/24 01:20:56;;;;;;;0.90;0.20;;;;;;;0.75;99.47;99130.02;111351;1263;22111;-71
2023/12/24 01:23:47;;;;;;;2.60;0.30;;;;;;;0.74;99.47;99136.96;111309;1265;22372;-71
2023/12/24 01:26:36;;;;;;;;;;;;;;;0.76;99.52;99139.58;111254;1269;22318;-72
2023/12/24 01:29:27;;;;;;;3.30;0.40;;;;;;;0.73;99.58;99144.19;111258;1268;22090;-71
2023/12/24 01:32:19;;;;;;;3.00;0.20;;;;;;;0.73;99.66;99141.83;111409;1263;22308;-73
2023/12/24 01:35:10;;;;;;;5.80;0.40;;;;;;;0.74;99.76;99140.10;111256;1246;22605;-72
2023/12/24 01:38:00;;;;;;;3.20;0.30;;;;;;;0.72;99.68;99140.84;111276;1269;22169;-72
2023/12/24 01:40:51;;;;;;;1.50;0.20;;;;;;;0.72;99.77;99137.95;111251;1269;22188;-72
2023/12/24 01:43:45;;;;;;;4.20;0.30;;;;;;;0.70;99.73;99141.94;111262;1269;22206;-71
2023/12/24 01:46:36;;;;;;;1.80;0.30;;;;;;;0.70;99.79;99137.39;111294;1269;22298;-72
2023/12/24 01:49:28;;;;;;;2.00;0.30;;;;;;;0.69;99.84;99139.55;111419;1268;22149;-72
2023/12/24 01:52:19;;;;;;;1.60;0.20;;;;;;;0.67;99.88;99143.98;111396;1268;23282;-71
2023/12/24 01:55:11;;;;;;;1.00;0.10;;;;;;;0.65;99.99;99146.55;111262;1263;22248;-71
2023/12/24 01:58:03;;;;;;;0.70;0.20;;;;;;;0.66;99.98;99142.92;111311;1269;22378;-72
2023/12/24 02:00:55;;;;;;;4.20;0.40;;;;;;;0.67;100.00;99135.59;111124;1266;22152;-72
2023/12/24 02:03:46;;;;;;;2.40;0.30;;;;;;;0.68;99.99;99128.88;111256;1266;22142;-71
2023/12/24 02:06:37;;;;;;;2.20;0.30;;;;;;;0.67;99.99;99131.59;111212;1266;22147;-72
2023/12/24 02:09:28;;;;;;;2.60;0.30;;;;;;;0.68;100.00;99134.16;111199;1269;22570;-72
2023/12/24 02:12:19;;;;;;;1.40;0.20;;;;;;;0.67;100.00;99138.09;111305;1268;22903;-72
2023/12/24 02:15:10;;;;;;;2.20;0.20;;;;;;;0.67;100.00;99141.24;111355;1269;22194;-72
2023/12/24 02:18:01;;;;;;;0.90;0.20;;;;;;;0.65;100.00;99144.69;111294;1263;22196;-72
2023/12/24 02:20:52;;;;;;;2.40;0.30;;;;;;;0.64;100.00;99141.55;111307;1268;22314;-73
2023/12/24 02:23:41;;;;;;;;;;;;;;;0.65;100.00;99140.77;111429;1265;22315;-71
2023/12/24 02:26:38;;;;;;;3.00;0.30;;;;;;;0.63;100.00;99140.05;111275;1268;22156;-72
2023/12/24 02:29:32;;;;;;;1.80;0.20;;;;;;;0.62;100.00;99140.61;111383;1260;22218;-72
2023/12/24 02:32:26;;;;;;;0.70;0.20;;;;;;;0.62;100.00;99136.86;111372;1262;22352;-70
2023/12/24 02:35:18;;;;;;;1.20;0.30;;;;;;;0.62;100.00;99140.77;111255;1262;22367;-71
2023/12/24 02:38:09;;;;;;;2.60;0.30;;;;;;;0.63;100.00;99140.66;111416;1268;22262;-73
2023/12/24 02:41:00;;;;;;;1.60;0.30;;;;;;;0.64;100.00;99138.27;111283;1269;22227;-71
2023/12/24 02:43:51;;;;;;;1.80;0.30;;;;;;;0.67;100.00;99136.16;111192;1269;22587;-71
2023/12/24 02:46:41;;;;;;;4.20;0.40;;;;;;;0.68;100.00;99131.16;111257;1269;22143;-73
2023/12/24 02:49:32;;;;;;;4.20;0.50;;;;;;;0.68;100.00;99125.89;111433;1268;23379;-73
2023/12/24 02:52:23;;;;;;;2.90;0.70;;;;;;;0.70;100.00;99129.77;111403;1268;22258;-72
2023/12/24 02:55:12;;;;;;;;;;;;;;;0.72;100.00;99131.45;111429;1266;23011;-72
2023/12/24 02:58:03;;;;;;;4.70;0.60;;;;;;;0.71;100.00;99131.30;111302;1269;22154;-71
2023/12/24 03:00:54;;;;;;;4.70;0.50;;;;;;;0.71;100.00;99127.63;111368;1263;22133;-71
2023/12/24 03:03:45;;;;;;;4.60;0.70;;;;;;;0.70;100.00;99123.74;111241;1265;22972;-71
2023/12/24 03:06:36;;;;;;;3.50;0.50;;;;;;;0.69;100.00;99125.25;111350;1268;22379;-71
2023/12/24 03:09:25;;;;;;;;;;;;;;;0.67;100.00;99128.84;111350;1269;22402;-71
2023/12/24 03:12:17;;;;;;;4.20;0.70;;;;;;;0.66;100.00;99129.65;111294;1268;22196;-71
2023/12/24 03:15:11;;;;;;;3.00;0.60;;;;;;;0.66;100.00;99129.81;111400;1268;22171;-72
2023/12/24 03:18:02;;;;;;;5.80;0.70;;;;;;;0.65;100.00;99131.27;111401;1268;22139;-72
2023/12/24 03:20:53;;;;;;;5.80;0.70;;;;;;;0.64;100.00;99133.17;111381;1268;22202;-73
2023/12/24 03:23:44;;;;;;;5.80;0.80;;;;;;;0.62;100.00;99126.16;111382;1266;22104;-74
2023/12/24 03:26:33;;;;;;;;;;;;;;;0.62;100.00;99128.38;111424;1260;23252;-72
2023/12/24 03:29:24;;;;;;;4.80;1.50;;;;;;;0.60;100.00;99124.73;111404;1268;22283;-72
2023/12/24 03:32:15;;;;;;;4.90;0.60;;;;;;;0.61;100.00;99126.12;111420;1268;22340;-71
2023/12/24 03:35:07;;;;;;;3.60;0.50;;;;;;;0.62;100.00;99124.94;111417;1268;22153;-72
2023/12/24 03:37:58;;;;;;;3.20;0.60;;;;;;;0.62;100.00;99126.13;111239;1269;22226;-72
2023/12/24 03:40:47;;;;;;;;;;;;;;;0.62;100.00;99130.09;111264;1269;23097;-73
2023/12/24 03:43:37;;;;;;;7.20;0.70;;;;;;;0.64;100.00;99124.16;111292;1269;22218;-73
2023/12/24 03:46:28;;;;;;;3.80;0.60;;;;;;;0.64;100.00;99127.98;111412;1268;22289;-71
2023/12/24 03:49:17;;;;;;;;;;;;;;;0.63;100.00;99132.48;111432;1268;22324;-70
2023/12/24 03:52:10;;;;;;;3.80;0.70;;;;;;;0.62;100.00;99132.98;111390;1265;22149;-72
2023/12/24 03:55:01;;;;;;;3.20;0.50;;;;;;;0.64;100.00;99125.66;111404;1266;22583;-72
2023/12/24 03:57:52;;;;;;;4.30;0.80;;;;;;;0.64;100.00;99124.69;111414;1266;23038;-71
2023/12/24 04:00:41;;;;;;;;;;;;;;;0.63;100.00;99118.77;111412;1268;22338;-72
2023/12/24 04:03:32;;;;;;;6.40;0.70;;;;;;;0.62;100.00;99118.86;111429;1256;22366;-73
2023/12/24 04:06:23;;;;;;;3.00;0.70;;;;;;;0.64;100.00;99120.92;111279;1263;22888;-71
2023/12/24 04:09:14;;;;;;;2.90;0.40;;;;;;;0.65;100.00;99136.20;111419;1266;22207;-71
2023/12/24 04:12:03;;;;;;;;;;;;;;;0.65;100.00;99140.75;111420;1263;22375;-72
2023/12/24 04:14:54;;;;;;;6.70;0.60;;;;;;;0.66;100.00;99143.17;111602;1266;22136;-73
2023/12/24 04:17:44;;;;;;;2.90;0.50;;;;;;;0.68;100.00;99141.77;111630;1266;22937;-72
2023/12/24 04:20:35;;;;;;;2.70;0.40;;;;;;;0.69;100.00;99140.55;111452;1266;22171;-72
2023/12/24 04:23:27;;;;;;;3.90;0.50;;;;;;;0.69;100.00;99137.17;111474;1260;22296;-72
2023/12/24 04:26:18;;;;;;;3.60;0.40;;;;;;;0.71;100.00;99135.33;111411;1260;22805;-72
2023/12/24 04:29:08;;;;;;;3.80;0.50;;;;;;;0.73;100.00;99130.01;111274;1267;22871;-71
2023/12/24 04:31:59;;;;;;;4.10;0.50;;;;;;;0.75;100.00;99126.47;111297;1267;23312;-72
2023/12/24 04:34:48;;;;;;;;;;;;;;;0.76;100.00;99130.30;111318;1259;22174;-71
2023/12/24 04:37:39;;;;;;;4.20;0.80;;;;;;;0.75;100.00;99130.48;111499;1267;22154;-72
2023/12/24 04:40:30;;;;;;;5.10;0.60;;;;;;;0.78;100.00;99126.14;111494;1260;22062;-71
2023/12/24 04:43:21;;;;;;;3.80;0.60;;;;;;;0.83;100.00;99124.21;111607;1263;22191;-71
2023/12/24 04:46:12;;;;;;;3.80;0.60;;;;;;;0.84;100.00;99122.27;111280;1257;22401;-70
2023/12/24 04:49:03;;;;;;;4.30;0.70;;;;;;;0.86;100.00;99128.02;111428;1265;23017;-71
2023/12/24 04:51:54;;;;;;;3.40;0.50;;;;;;;0.87;100.00;99125.38;111645;1266;22173;-71
2023/12/24 04:54:45;;;;;;;4.90;1.10;;;;;;;0.90;100.00;99128.30;111410;1266;22217;-72
2023/12/24 04:57:36;;;;;;;5.30;0.60;;;;;;;0.91;100.00;99127.77;111647;1266;22209;-72
2023/12/24 05:00:25;;;;;;;;;;;;;;;0.93;100.00;99131.90;111640;1260;22302;-70
2023/12/24 05:03:16;;;;;;;5.60;0.50;;;;;;;0.94;100.00;99130.99;111699;1261;22098;-72
2023/12/24 05:06:07;;;;;;;4.70;0.60;;;;;;;0.97;100.00;99128.80;111755;1260;23259;-72
2023/12/24 05:08:58;;;;;;;3.00;0.60;;;;;;;0.95;100.00;99127.35;111620;1263;22902;-71
2023/12/24 05:11:49;;;;;;;3.40;0.30;;;;;;;0.93;100.00;99120.83;111514;1260;22606;-70
2023/12/24 05:14:40;;;;;;;3.90;0.40;;;;;;;0.93;100.00;99116.28;111779;1263;22121;-71
2023/12/24 05:17:30;;;;;;;2.60;0.40;;;;;;;0.97;100.00;99110.42;111497;1260;22271;-71
2023/12/24 05:20:21;;;;;;;8.80;0.60;;;;;;;0.98;100.00;99118.15;111463;1266;22808;-71
2023/12/24 05:23:12;;;;;;;6.80;0.50;;;;;;;0.96;100.00;99114.90;111497;1266;22308;-70
2023/12/24 05:26:03;;;;;;;7.80;0.90;;;;;;;0.97;100.00;99115.05;111626;1266;23023;-71
2023/12/24 05:28:54;;;;;;;3.30;0.50;;;;;;;0.97;100.00;99115.42;111645;1266;22214;-71
2023/12/24 05:31:45;;;;;;;6.30;0.60;;;;;;;0.97;100.00;99110.55;111640;1266;22104;-71
2023/12/24 05:34:35;;;;;;;;;;;;;;;1.01;100.00;99110.36;111659;1267;22200;-71
2023/12/24 05:37:25;;;;;;;2.60;0.40;;;;;;;1.03;100.00;99108.41;111638;1263;22247;-71
2023/12/24 05:40:14;;;;;;;;;;;;;;;1.01;100.00;99101.63;111697;1266;22315;-71
2023/12/24 05:43:05;;;;;;;3.30;0.50;;;;;;;1.01;100.00;99097.23;111620;1262;22451;-71
2023/12/24 05:45:56;;;;;;;4.20;0.80;;;;;;;1.03;100.00;99105.96;111607;1267;22143;-70
2023/12/24 05:48:47;;;;;;;4.20;0.90;;;;;;;1.00;100.00;99108.25;111608;1267;22112;-72
2023/12/24 05:51:38;;;;;;;5.20;0.60;;;;;;;0.99;100.00;99098.41;111731;1260;22231;-71
2023/12/24 05:54:27;;;;;;;;;;;;;;;0.95;100.00;99107.73;111741;1266;22332;-71
2023/12/24 05:57:17;;;;;;;6.10;0.80;;;;;;;0.92;100.00;99088.59;111701;1263;22147;-72
2023/12/24 06:00:11;;;;;;;8.10;1.30;;;;;;;0.90;100.00;99095.25;111738;1263;23583;-72
2023/12/24 06:03:06;;;;;;;7.00;1.00;;;;;;;0.91;100.00;99088.70;111749;1247;22212;-72
2023/12/24 06:05:57;;;;;;;5.20;1.10;;;;;;;0.91;100.00;99086.02;111457;1266;22138;-72
2023/12/24 06:08:48;;;;;;;8.30;1.50;;;;;;;0.91;100.00;99082.35;111665;1262;23206;-71
2023/12/24 06:11:39;;;;;;;7.60;1.20;;;;;;;0.91;100.00;99089.64;111642;1263;23383;-71
2023/12/24 06:14:30;;;;;;;5.20;1.20;;;;;;;0.93;100.00;99093.29;111665;1259;22354;-70
2023/12/24 06:17:21;;;;;;;8.50;1.70;;;;;;;0.94;100.00;99095.75;111658;1259;22335;-71
2023/12/24 06:20:13;;;;;;;7.80;1.60;;;;;;;0.92;100.00;99087.88;111782;1261;23174;-70
2023/12/24 06:23:04;;;;;;;19.50;4.50;;;;;;;0.88;100.00;99090.04;111845;1265;22091;-70
2023/12/24 06:25:55;;;;;;;19.80;4.50;;;;;;;0.88;100.00;99087.68;111802;1265;22916;-71
2023/12/24 06:28:46;;;;;;;17.00;4.00;;;;;;;0.87;100.00;99088.05;111705;1260;128278;-73
2023/12/24 06:31:38;;;;;;;24.10;6.70;;;;;;;0.88;100.00;99083.92;111775;1266;22333;-70
2023/12/24 06:34:28;;;;;;;19.60;5.30;;;;;;;0.89;100.00;99082.70;111647;1261;22205;-71
2023/12/24 06:37:19;;;;;;;24.60;7.70;;;;;;;0.87;100.00;99076.58;111632;1266;22688;-72
2023/12/24 06:40:11;;;;;;;19.50;4.80;;;;;;;0.86;100.00;99080.01;111660;1260;22833;-71
2023/12/24 06:43:02;;;;;;;20.90;8.00;;;;;;;0.86;100.00;99077.39;111831;1266;23105;-71
2023/12/24 06:45:53;;;;;;;22.50;8.90;;;;;;;0.88;100.00;99084.17;111796;1254;22308;-70
2023/12/24 06:48:44;;;;;;;13.20;3.80;;;;;;;0.90;100.00;99076.80;111778;1263;22102;-71
2023/12/24 06:51:33;;;;;;;;;;;;;;;0.90;100.00;99082.69;111806;1266;22341;-70
2023/12/24 06:54:23;;;;;;;12.60;2.90;;;;;;;0.89;100.00;99084.46;111781;1263;23473;-71
2023/12/24 06:57:14;;;;;;;13.00;3.60;;;;;;;0.86;100.00;99086.73;111708;1263;22180;-70
2023/12/24 07:00:06;;;;;;;14.60;3.60;;;;;;;0.85;100.00;99083.73;111621;1263;22306;-70
2023/12/24 07:02:57;;;;;;;15.80;4.30;;;;;;;0.84;100.00;99085.21;111651;1267;22151;-71
2023/12/24 07:05:48;;;;;;;13.20;2.80;;;;;;;0.85;100.00;99075.55;111639;1263;23044;-70
2023/12/24 07:08:39;;;;;;;18.70;4.10;;;;;;;0.84;100.00;99073.70;111767;1263;22102;-70
2023/12/24 07:11:30;;;;;;;25.10;8.30;;;;;;;0.85;100.00;99070.45;111783;1257;22318;-70
2023/12/24 07:14:21;;;;;;;27.60;7.40;;;;;;;0.87;100.00;99071.41;111475;1260;22416;-70
2023/12/24 07:17:12;;;;;;;20.00;4.80;;;;;;;0.86;100.00;99073.33;111778;1266;22333;-70
2023/12/24 07:20:01;;;;;;;;;;;;;;;0.82;100.00;99079.39;111681;1267;22205;-71
2023/12/24 07:22:51;;;;;;;29.60;8.60;;;;;;;0.83;100.00;99074.52;111858;1266;22144;-71
2023/12/24 07:25:42;;;;;;;35.50;11.90;;;;;;;0.86;100.00;99066.34;111658;1266;22141;-70
2023/12/24 07:28:33;;;;;;;33.90;10.40;;;;;;;0.86;100.00;99069.54;111671;1263;22269;-71
2023/12/24 07:31:24;;;;;;;25.10;8.00;;;;;;;0.84;100.00;99064.19;111750;1263;22368;-71
2023/12/24 07:34:14;;;;;;;24.40;5.40;;;;;;;0.84;100.00;99072.54;111661;1256;22965;-70
2023/12/24 07:37:05;;;;;;;28.00;8.20;;;;;;;0.82;100.00;99089.31;111697;1254;22099;-71
2023/12/24 07:39:56;;;;;;;15.30;4.10;;;;;;;0.82;100.00;99083.17;111741;1263;22352;-70
2023/12/24 07:42:47;;;;;;;19.60;6.00;;;;;;;0.84;100.00;99068.91;111698;1263;22324;-71
2023/12/24 07:45:38;;;;;;;19.20;4.50;;;;;;;0.86;100.00;99054.15;111688;1263;22984;-70
2023/12/24 07:48:29;;;;;;;12.20;2.90;;;;;;;0.86;100.00;99038.40;111607;1261;23043;-72
2023/12/24 07:51:18;;;;;;;;;;;;;;;0.82;100.00;99073.04;111694;1262;22337;-70
2023/12/24 07:54:08;;;;;;;5.00;1.10;;;;;;;0.75;100.00;99122.23;111632;1263;22212;-71
2023/12/24 07:56:59;;;;;;;5.70;1.00;;;;;;;0.73;100.00;99105.27;111636;1260;22266;-71
2023/12/24 07:59:50;;;;;;;8.80;1.80;;;;;;;0.76;100.00;99074.09;111676;1262;22353;-70
2023/12/24 08:02:40;;;;;;;14.90;2.80;;;;;;;0.80;100.00;99063.44;111709;1262;23598;-69
2023/12/24 08:05:32;;;;;;;15.40;3.40;;;;;;;0.83;100.00;99063.36;111726;1257;22129;-72
2023/12/24 08:08:23;;;;;;;9.30;2.20;;;;;;;0.82;100.00;99073.20;111666;1259;22102;-71
2023/12/24 08:11:13;;;;;;;9.20;1.50;;;;;;;0.85;100.00;99071.45;111754;1260;23095;-71
2023/12/24 08:14:03;;;;;;;;;;;;;;;0.87;100.00;99064.40;111692;1260;22514;-70
2023/12/24 08:16:53;;;;;;;7.00;1.00;;;;;;;0.90;100.00;99065.18;111676;1263;23028;-72
2023/12/24 08:19:45;;;;;;;6.80;1.40;;;;;;;0.91;100.00;99067.05;111670;1260;22134;-72
2023/12/24 08:22:37;;;;;;;21.70;5.40;;;;;;;0.91;100.00;99068.52;111637;1260;22178;-73
2023/12/24 08:25:29;;;;;;;20.40;4.00;;;;;;;0.91;100.00;99060.98;111660;1247;23185;-72
2023/12/24 08:28:20;;;;;;;14.80;3.20;;;;;;;0.92;100.00;99050.13;111625;1261;22342;-71
2023/12/24 08:31:11;;;;;;;10.60;2.40;;;;;;;0.92;100.00;99039.28;111674;1247;22316;-71
2023/12/24 08:34:02;;;;;;;10.00;2.40;;;;;;;0.93;100.00;99037.44;111663;1261;22843;-71
2023/12/24 08:36:53;;;;;;;7.00;1.60;;;;;;;0.97;100.00;99040.05;111588;1260;23086;-70
2023/12/24 08:39:43;;;;;;;8.30;1.90;;;;;;;1.00;100.00;99031.08;111581;1263;22425;-70
2023/12/24 08:42:37;;;;;;;8.70;1.60;;;;;;;1.00;100.00;99031.23;111378;1243;23119;-72
2023/12/24 08:45:29;;;;;;;6.90;1.70;;;;;;;0.99;100.00;99029.30;108503;1263;22532;-70
2023/12/24 08:48:19;;;;;;;7.50;1.70;;;;;;;0.97;100.00;99024.09;108460;1260;27627;-71
2023/12/24 08:51:11;;;;;;;12.00;3.00;;;;;;;0.98;100.00;99015.52;108494;1266;22550;-70
2023/12/24 08:54:02;;;;;;;10.20;2.30;;;;;;;0.99;100.00;99010.95;108465;1262;24228;-72
2023/12/24 08:56:53;;;;;;;10.10;2.10;;;;;;;0.98;100.00;99010.18;108448;1266;23009;-71
2023/12/24 08:59:43;;;;;;;8.10;1.90;;;;;;;0.98;100.00;99001.85;108526;1260;22537;-70
2023/12/24 09:02:35;;;;;;;7.80;2.10;;;;;;;0.98;100.00;99001.45;108634;1266;22518;-74
2023/12/24 09:05:26;;;;;;;12.90;2.30;;;;;;;0.99;100.00;98999.95;108488;1266;24236;-73
2023/12/24 09:08:16;;;;;;;10.50;2.10;;;;;;;1.00;100.00;98998.80;108452;1263;22544;-72
2023/12/24 09:11:07;;;;;;;12.80;3.80;;;;;;;1.00;100.00;98999.15;108444;1260;25465;-73
2023/12/24 09:13:59;;;;;;;13.10;3.30;;;;;;;1.01;100.00;99002.09;108299;1266;25263;-73
2023/12/24 09:16:50;;;;;;;15.40;4.40;;;;;;;1.02;100.00;98997.33;108309;1266;22630;-72
2023/12/24 09:19:41;;;;;;;15.70;4.80;;;;;;;1.04;100.00;98993.20;108274;1267;24246;-72
2023/12/24 09:22:32;;;;;;;15.40;4.50;;;;;;;1.04;100.00;98997.56;108531;1264;22521;-73
2023/12/24 09:25:23;;;;;;;19.30;5.80;;;;;;;1.05;100.00;98992.42;108664;1266;25411;-74
2023/12/24 09:28:14;;;;;;;18.70;5.00;;;;;;;1.07;100.00;98983.18;109139;1263;22574;-73
2023/12/24 09:31:05;;;;;;;14.00;3.80;;;;;;;1.09;100.00;98982.17;109339;1257;24164;-75
2023/12/24 09:33:57;;;;;;;18.30;4.90;;;;;;;1.09;100.00;98983.40;109106;1263;22691;-71
2023/12/24 09:36:48;;;;;;;21.10;6.80;;;;;;;1.12;100.00;98978.29;109065;1263;22661;-70
2023/12/24 09:39:39;;;;;;;17.50;5.60;;;;;;;1.15;100.00;98969.45;109203;1263;24386;-71
2023/12/24 09:42:30;;;;;;;14.30;4.50;;;;;;;1.19;100.00;98965.02;109117;1262;25360;-71
2023/12/24 09:45:22;;;;;;;13.90;3.90;;;;;;;1.19;100.00;98970.89;109129;1263;22930;-71
2023/12/24 09:48:13;;;;;;;17.00;4.90;;;;;;;1.22;100.00;98970.98;109182;1263;22627;-70
2023/12/24 09:51:06;;;;;;;15.20;4.60;;;;;;;1.22;100.00;98968.92;109190;1257;25342;-70
2023/12/24 09:53:58;;;;;;;17.80;5.70;;;;;;;1.23;100.00;98956.55;108808;1263;22564;-71
2023/12/24 09:56:49;;;;;;;17.70;6.70;;;;;;;1.26;100.00;98947.08;108290;1266;22529;-73
2023/12/24 09:59:41;;;;;;;21.10;7.10;;;;;;;1.29;100.00;98947.52;108380;1264;25495;-73
2023/12/24 10:02:32;;;;;;;21.80;7.30;;;;;;;1.30;100.00;98951.91;108328;1266;22531;-74
2023/12/24 10:05:23;;;;;;;20.40;7.10;;;;;;;1.31;100.00;98937.71;108350;1266;22537;-74
2023/12/24 10:08:20;;;;;;;21.20;7.40;;;;;;;1.33;100.00;98935.38;108381;1264;22538;-73
2023/12/24 10:11:20;;;;;;;18.20;6.10;;;;;;;1.34;100.00;98934.46;108433;1261;22558;-73
2023/12/24 10:14:12;;;;;;;22.30;7.50;;;;;;;1.38;100.00;98922.70;108350;1260;27305;-73
2023/12/24 10:17:03;;;;;;;30.00;12.90;;;;;;;1.41;100.00;98918.86;108325;1266;23130;-73
2023/12/24 10:19:54;;;;;;;26.20;10.90;;;;;;;1.44;100.00;98913.89;108446;1261;25373;-74
2023/12/24 10:22:45;;;;;;;25.10;9.50;;;;;;;1.48;100.00;98921.29;109088;1266;22563;-74
2023/12/24 10:25:36;;;;;;;23.30;8.20;;;;;;;1.52;100.00;98916.19;109301;1252;22923;-73
2023/12/24 10:28:27;;;;;;;25.10;8.00;;;;;;;1.58;100.00;98914.63;109368;1266;23004;-74
2023/12/24 10:31:18;;;;;;;22.50;8.60;;;;;;;1.65;100.00;98905.80;109256;1262;22627;-73
2023/12/24 10:34:09;;;;;;;38.10;13.30;;;;;;;1.71;100.00;98903.35;108992;1253;23037;-73
2023/12/24 10:37:00;;;;;;;;;;;;;;;1.75;100.00;98906.91;108681;1263;22518;-74
2023/12/24 10:39:51;;;;;;;28.70;11.00;;;;;;;1.81;100.00;98896.63;111564;1259;22265;-74
2023/12/24 10:42:44;;;;;;;29.30;11.80;;;;;;;1.84;100.00;98894.85;111578;1266;23184;-71
2023/12/24 10:45:34;;;;;;;30.10;10.90;;;;;;;1.89;100.00;98887.86;111570;1263;22364;-71
2023/12/24 10:48:25;;;;;;;37.50;15.20;;;;;;;1.93;100.00;98886.14;111572;1263;22365;-71
2023/12/24 10:51:16;;;;;;;39.70;19.40;;;;;;;1.99;100.00;98882.30;111434;1266;22179;-70
2023/12/24 10:54:06;;;;;;;;;;;;;;;2.04;100.00;98890.27;111647;1266;22344;-71
2023/12/24 10:57:08;;;;;;;28.50;11.00;;;;;;;2.09;100.00;98886.19;111437;1265;22124;-71
2023/12/24 11:00:12;;;;;;;24.50;9.70;;;;;;;2.14;100.00;98876.08;111626;1266;22156;-71
2023/12/24 11:03:03;;;;;;;28.20;10.20;;;;;;;2.19;100.00;98873.83;111613;1263;22816;-72
2023/12/24 11:05:54;;;;;;;29.90;10.90;;;;;;;2.23;100.00;98873.91;111587;1266;22296;-71
2023/12/24 11:08:45;;;;;;;27.50;10.80;;;;;;;2.29;100.00;98871.86;111607;1263;22381;-71
2023/12/24 11:11:53;;;;;;;28.00;11.10;;;;;;;2.33;100.00;98865.38;111582;1263;22827;-72
2023/12/24 11:14:45;;;;;;;26.70;10.40;;;;;;;2.38;100.00;98861.31;111584;1266;22322;-71
2023/12/24 11:17:51;;;;;;;29.20;10.40;;;;;;;2.44;100.00;98856.34;111617;1266;22166;-71
2023/12/24 11:20:45;;;;;;;28.80;10.30;;;;;;;2.52;100.00;98852.17;111601;1263;22137;-72
2023/12/24 11:23:36;;;;;;;26.80;10.10;;;;;;;2.58;100.00;98846.49;111644;1266;22165;-70
2023/12/24 11:26:36;;;;;;;28.40;10.90;;;;;;;2.64;100.00;98843.38;111586;1256;22164;-73
2023/12/24 11:29:49;;;;;;;25.40;10.00;;;;;;;2.71;100.00;98839.23;111634;1261;22256;-71
2023/12/24 11:32:40;;;;;;;24.50;8.90;;;;;;;2.77;100.00;98834.00;111461;1267;22125;-70
2023/12/24 11:35:53;;;;;;;29.30;11.30;;;;;;;2.83;100.00;98828.23;111638;1260;23021;-71
2023/12/24 11:38:45;;;;;;;26.20;9.80;;;;;;;2.90;100.00;98824.30;111647;1260;22288;-71
2023/12/24 11:41:36;;;;;;;25.70;10.70;;;;;;;2.95;100.00;98828.71;111639;1260;23154;-72
2023/12/24 11:44:27;;;;;;;34.10;12.80;;;;;;;3.00;100.00;98820.19;111667;1265;22151;-71
2023/12/24 11:47:20;;;;;;;28.30;10.40;;;;;;;3.06;100.00;98815.67;111641;1266;22281;-72
2023/12/24 11:50:13;;;;;;;31.40;11.50;;;;;;;3.13;100.00;98816.23;111619;1260;24249;-71
2023/12/24 11:53:05;;;;;;;27.50;10.40;;;;;;;3.18;100.00;98810.10;111595;1260;22272;-74
2023/12/24 11:56:07;;;;;;;31.90;12.80;;;;;;;3.23;100.00;98809.60;111560;1261;22246;-74
2023/12/24 11:59:03;;;;;;;30.50;13.10;;;;;;;3.28;100.00;98810.10;111682;1260;22225;-72
2023/12/24 12:02:05;;;;;;;32.90;13.60;;;;;;;3.33;100.00;98808.23;111596;1261;22859;-72
2023/12/24 12:04:58;;;;;;;35.40;13.80;;;;;;;3.37;100.00;98803.07;111646;1259;22193;-72
2023/12/24 12:07:48;;;;;;;36.20;15.20;;;;;;;3.42;100.00;98799.91;111659;1263;22361;-71
2023/12/24 12:10:38;;;;;;;;;;;;;;;3.46;100.00;98796.27;111655;1261;22964;-72
2023/12/24 12:13:29;;;;;;;35.80;15.50;;;;;;;3.50;100.00;98799.89;111526;1261;22148;-72
2023/12/24 12:16:20;;;;;;;41.70;17.90;;;;;;;3.53;100.00;98795.38;111654;1262;22271;-72
2023/12/24 12:19:09;;;;;;;;;;;;;;;3.57;100.00;98794.71;111626;1263;23207;-74
2023/12/24 12:22:00;;;;;;;38.80;16.40;;;;;;;3.60;100.00;98797.39;111652;1261;23947;-72
2023/12/24 12:24:49;;;;;;;;;;;;;;;3.64;100.00;98793.76;111632;1259;22321;-72
2023/12/24 12:27:40;;;;;;;37.20;15.00;;;;;;;3.68;100.00;98793.77;111606;1264;23170;-73
2023/12/24 12:30:31;;;;;;;33.70;14.00;;;;;;;3.73;100.00;98792.77;111526;1261;22105;-75
2023/12/24 12:33:22;;;;;;;33.30;14.20;;;;;;;3.77;100.00;98797.86;111585;1259;22234;-74
2023/12/24 12:36:13;;;;;;;;;;;;;;;3.81;100.00;98801.22;111631;1264;22315;-73
2023/12/24 12:39:05;;;;;;;30.80;11.50;;;;;;;3.83;100.00;98803.70;111593;1261;22351;-73
2023/12/24 12:41:57;;;;;;;30.00;12.30;;;;;;;3.87;100.00;98803.89;111593;1260;23202;-73
2023/12/24 12:44:48;;;;;;;34.40;12.60;;;;;;;3.92;100.00;98792.09;111612;1266;22869;-74
2023/12/24 12:47:39;;;;;;;27.50;10.60;;;;;;;3.94;100.00;98797.31;111552;1264;22836;-73
2023/12/24 12:50:32;;;;;;;;;;;;;;;3.98;100.00;98789.45;111427;1257;22551;-74
2023/12/24 12:53:27;;;;;;;24.40;7.90;;;;;;;4.00;100.00;98789.67;108579;1260;24018;-72
2023/12/24 12:56:19;;;;;;;23.60;7.50;;;;;;;4.04;100.00;98791.61;108522;1259;22986;-73
2023/12/24 12:59:18;;;;;;;23.40;8.90;;;;;;;4.08;100.00;98791.34;109028;1260;22525;-73
2023/12/24 13:02:09;;;;;;;24.00;8.10;;;;;;;4.12;100.00;98788.86;108549;1260;24219;-73
2023/12/24 13:05:00;;;;;;;21.30;7.70;;;;;;;4.14;100.00;98791.00;108572;1265;24302;-73
2023/12/24 13:07:51;;;;;;;24.00;6.80;;;;;;;4.14;100.00;98795.48;108585;1263;24222;-72
2023/12/24 13:10:43;;;;;;;22.90;7.70;;;;;;;4.15;100.00;98787.46;108738;1260;22539;-73
2023/12/24 13:13:34;;;;;;;22.00;5.60;;;;;;;4.15;100.00;98785.71;111581;1261;22281;-73
2023/12/24 13:16:25;;;;;;;22.40;7.00;;;;;;;4.16;100.00;98784.66;111638;1261;22193;-74
2023/12/24 13:19:23;;;;;;;20.50;6.10;;;;;;;4.16;100.00;98780.30;111571;1260;23151;-74
2023/12/24 13:22:15;;;;;;;;;;;;;;;4.17;100.00;98782.17;111616;1257;23221;-75